sensor_id;sensor_type;location;lat;lon;timestamp;temperature;humidity
3202;DHT22;34843;48.744;8.958;2023-07-24T00:02:16;17.00;99.90
3202;DHT22;34843;48.744;8.958;2023-07-24T00:04:42;17.00;99.90
3202;DHT22;34843;48.744;8.958;2023-07-24T00:07:07;17.00;99.90
3202;DHT22;34843;48.744;8.958;2023-07-24T00:09:33;17.00;99.90
3202;DHT22;34843;48.744;8.958;2023-07-24T00:11:58;17.00;99.90
3202;DHT22;34843;48.744;8.958;2023-07-24T00:14:24;16.30;99.90
3202;DHT22;34843;48.744;8.958;2023-07-24T00:16:50;16.80;99.90
3202;DHT22;34843;48.744;8.958;2023-07-24T00:19:16;16.70;99.90
3202;DHT22;34843;48.744;8.958;2023-07-24T00:21:41;16.60;99.90
3202;DHT22;34843;48.744;8.958;2023-07-24T00:24:07;16.60;99.90
3202;DHT22;34843;48.744;8.958;2023-07-24T00:26:32;16.50;99.90
3202;DHT22;34843;48.744;8.958;2023-07-24T00:28:59;16.50;99.90
3202;DHT22;34843;48.744;8.958;2023-07-24T00:31:25;16.50;99.90
3202;DHT22;34843;48.744;8.958;2023-07-24T00:33:50;16.50;99.90
3202;DHT22;34843;48.744;8.958;2023-07-24T00:36:16;16.50;99.90
3202;DHT22;34843;48.744;8.958;2023-07-24T00:38:41;17.10;99.90
3202;DHT22;34843;48.744;8.958;2023-07-24T00:41:07;16.30;99.90
3202;DHT22;34843;48.744;8.958;2023-07-24T00:43:32;16.30;99.90
3202;DHT22;34843;48.744;8.958;2023-07-24T00:45:58;16.30;99.90
3202;DHT22;34843;48.744;8.958;2023-07-24T00:48:24;16.20;99.90
3202;DHT22;34843;48.744;8.958;2023-07-24T00:50:49;16.20;99.90
3202;DHT22;34843;48.744;8.958;2023-07-24T00:53:16;16.20;99.90
3202;DHT22;34843;48.744;8.958;2023-07-24T00:55:43;16.20;99.90
3202;DHT22;34843;48.744;8.958;2023-07-24T00:58:11;16.10;99.90
3202;DHT22;34843;48.744;8.958;2023-07-24T01:00:38;16.10;99.90
3202;DHT22;34843;48.744;8.958;2023-07-24T01:03:04;16.00;99.90
3202;DHT22;34843;48.744;8.958;2023-07-24T01:05:30;16.00;99.90
3202;DHT22;34843;48.744;8.958;2023-07-24T01:07:55;16.00;99.90
3202;DHT22;34843;48.744;8.958;2023-07-24T01:10:21;16.00;99.90
3202;DHT22;34843;48.744;8.958;2023-07-24T01:13:04;16.00;99.90
3202;DHT22;34843;48.744;8.958;2023-07-24T01:15:31;15.90;99.90
3202;DHT22;34843;48.744;8.958;2023-07-24T01:18:00;15.80;99.90
3202;DHT22;34843;48.744;8.958;2023-07-24T01:20:29;15.80;99.90
3202;DHT22;34843;48.744;8.958;2023-07-24T01:25:53;15.70;99.90
3202;DHT22;34843;48.744;8.958;2023-07-24T01:28:19;15.70;99.90
3202;DHT22;34843;48.744;8.958;2023-07-24T01:30:44;15.70;99.90
3202;DHT22;34843;48.744;8.958;2023-07-24T01:33:10;15.60;99.90
3202;DHT22;34843;48.744;8.958;2023-07-24T01:35:36;15.60;99.90
3202;DHT22;34843;48.744;8.958;2023-07-24T01:38:02;15.60;99.90
3202;DHT22;34843;48.744;8.958;2023-07-24T01:40:29;15.50;99.90
3202;DHT22;34843;48.744;8.958;2023-07-24T01:42:55;15.50;99.90
3202;DHT22;34843;48.744;8.958;2023-07-24T01:45:20;15.50;99.90
3202;DHT22;34843;48.744;8.958;2023-07-24T01:47:46;15.50;99.90
3202;DHT22;34843;48.744;8.958;2023-07-24T01:50:11;15.50;99.90
3202;DHT22;34843;48.744;8.958;2023-07-24T01:52:37;15.50;99.90
3202;DHT22;34843;48.744;8.958;2023-07-24T01:55:03;15.50;99.90
3202;DHT22;34843;48.744;8.958;2023-07-24T01:57:28;15.60;99.90
3202;DHT22;34843;48.744;8.958;2023-07-24T01:59:54;15.60;99.90
3202;DHT22;34843;48.744;8.958;2023-07-24T02:02:19;15.60;99.90
3202;DHT22;34843;48.744;8.958;2023-07-24T02:04:46;15.60;99.90
3202;DHT22;34843;48.744;8.958;2023-07-24T02:07:11;15.60;99.90
3202;DHT22;34843;48.744;8.958;2023-07-24T02:09:37;15.70;99.90
3202;DHT22;34843;48.744;8.958;2023-07-24T02:12:02;15.80;99.90
3202;DHT22;34843;48.744;8.958;2023-07-24T02:14:28;15.80;99.90
3202;DHT22;34843;48.744;8.958;2023-07-24T02:16:54;15.90;99.90
3202;DHT22;34843;48.744;8.958;2023-07-24T02:19:19;15.90;99.90
3202;DHT22;34843;48.744;8.958;2023-07-24T02:21:44;15.90;99.90
3202;DHT22;34843;48.744;8.958;2023-07-24T02:24:10;15.90;99.90
3202;DHT22;34843;48.744;8.958;2023-07-24T02:26:35;15.90;99.90
3202;DHT22;34843;48.744;8.958;2023-07-24T02:29:01;15.90;99.90
3202;DHT22;34843;48.744;8.958;2023-07-24T02:31:26;15.90;99.90
3202;DHT22;34843;48.744;8.958;2023-07-24T02:33:52;15.90;99.90
3202;DHT22;34843;48.744;8.958;2023-07-24T02:36:17;15.90;99.90
3202;DHT22;34843;48.744;8.958;2023-07-24T02:38:43;15.90;99.90
3202;DHT22;34843;48.744;8.958;2023-07-24T02:41:08;15.90;99.90
3202;DHT22;34843;48.744;8.958;2023-07-24T02:43:34;15.90;99.90
3202;DHT22;34843;48.744;8.958;2023-07-24T02:46:03;15.80;99.90
3202;DHT22;34843;48.744;8.958;2023-07-24T02:48:28;15.80;99.90
3202;DHT22;34843;48.744;8.958;2023-07-24T02:50:54;15.80;99.90
3202;DHT22;34843;48.744;8.958;2023-07-24T02:53:20;15.70;99.90
3202;DHT22;34843;48.744;8.958;2023-07-24T02:55:45;15.60;99.90
3202;DHT22;34843;48.744;8.958;2023-07-24T02:58:12;15.60;99.90
3202;DHT22;34843;48.744;8.958;2023-07-24T03:00:38;15.50;99.90
3202;DHT22;34843;48.744;8.958;2023-07-24T03:03:04;15.50;99.90
3202;DHT22;34843;48.744;8.958;2023-07-24T03:05:30;15.40;99.90
3202;DHT22;34843;48.744;8.958;2023-07-24T03:07:55;15.40;99.90
3202;DHT22;34843;48.744;8.958;2023-07-24T03:10:22;15.40;99.90
3202;DHT22;34843;48.744;8.958;2023-07-24T03:12:47;15.40;99.90
3202;DHT22;34843;48.744;8.958;2023-07-24T03:15:13;15.30;99.90
3202;DHT22;34843;48.744;8.958;2023-07-24T03:17:38;15.30;99.90
3202;DHT22;34843;48.744;8.958;2023-07-24T03:20:09;15.20;99.90
3202;DHT22;34843;48.744;8.958;2023-07-24T03:22:34;15.00;99.90
3202;DHT22;34843;48.744;8.958;2023-07-24T03:25:00;15.10;99.90
3202;DHT22;34843;48.744;8.958;2023-07-24T03:27:25;15.10;99.90
3202;DHT22;34843;48.744;8.958;2023-07-24T03:29:51;15.10;99.90
3202;DHT22;34843;48.744;8.958;2023-07-24T03:32:16;15.10;99.90
3202;DHT22;34843;48.744;8.958;2023-07-24T03:34:42;15.10;99.90
3202;DHT22;34843;48.744;8.958;2023-07-24T03:37:07;15.10;99.90
3202;DHT22;34843;48.744;8.958;2023-07-24T03:39:33;15.10;99.90
3202;DHT22;34843;48.744;8.958;2023-07-24T03:41:58;15.10;99.90
3202;DHT22;34843;48.744;8.958;2023-07-24T03:44:24;15.20;99.90
3202;DHT22;34843;48.744;8.958;2023-07-24T03:46:50;15.20;99.90
3202;DHT22;34843;48.744;8.958;2023-07-24T03:49:15;15.30;99.90
3202;DHT22;34843;48.744;8.958;2023-07-24T03:51:41;15.30;99.90
3202;DHT22;34843;48.744;8.958;2023-07-24T03:54:06;15.40;99.90
3202;DHT22;34843;48.744;8.958;2023-07-24T03:56:32;15.40;99.90
3202;DHT22;34843;48.744;8.958;2023-07-24T03:58:57;15.40;99.90
3202;DHT22;34843;48.744;8.958;2023-07-24T04:01:23;15.50;99.90
3202;DHT22;34843;48.744;8.958;2023-07-24T04:03:48;15.60;99.90
3202;DHT22;34843;48.744;8.958;2023-07-24T04:06:14;15.70;99.90
3202;DHT22;34843;48.744;8.958;2023-07-24T04:08:39;15.80;99.90
3202;DHT22;34843;48.744;8.958;2023-07-24T04:11:05;15.70;99.90
3202;DHT22;34843;48.744;8.958;2023-07-24T04:13:30;15.70;99.90
3202;DHT22;34843;48.744;8.958;2023-07-24T04:15:56;15.80;99.90
3202;DHT22;34843;48.744;8.958;2023-07-24T04:18:23;15.80;99.90
3202;DHT22;34843;48.744;8.958;2023-07-24T04:20:48;15.80;99.90
3202;DHT22;34843;48.744;8.958;2023-07-24T04:23:14;15.90;99.90
3202;DHT22;34843;48.744;8.958;2023-07-24T04:25:39;15.90;99.90
3202;DHT22;34843;48.744;8.958;2023-07-24T04:28:05;15.90;99.90
3202;DHT22;34843;48.744;8.958;2023-07-24T04:30:30;15.90;99.90
3202;DHT22;34843;48.744;8.958;2023-07-24T04:32:55;16.00;99.90
3202;DHT22;34843;48.744;8.958;2023-07-24T04:35:21;16.10;99.90
3202;DHT22;34843;48.744;8.958;2023-07-24T04:37:47;16.20;99.90
3202;DHT22;34843;48.744;8.958;2023-07-24T04:40:12;16.30;99.90
3202;DHT22;34843;48.744;8.958;2023-07-24T04:42:38;16.50;99.90
3202;DHT22;34843;48.744;8.958;2023-07-24T04:45:04;16.50;99.90
3202;DHT22;34843;48.744;8.958;2023-07-24T04:47:29;16.60;99.90
3202;DHT22;34843;48.744;8.958;2023-07-24T04:49:55;16.60;99.90
3202;DHT22;34843;48.744;8.958;2023-07-24T04:52:21;16.70;99.90
3202;DHT22;34843;48.744;8.958;2023-07-24T04:54:46;16.70;99.90
3202;DHT22;34843;48.744;8.958;2023-07-24T04:57:12;16.60;99.90
3202;DHT22;34843;48.744;8.958;2023-07-24T04:59:37;16.50;99.90
3202;DHT22;34843;48.744;8.958;2023-07-24T05:02:03;16.40;99.90
3202;DHT22;34843;48.744;8.958;2023-07-24T05:04:28;16.50;99.90
3202;DHT22;34843;48.744;8.958;2023-07-24T05:06:54;16.50;99.90
3202;DHT22;34843;48.744;8.958;2023-07-24T05:09:19;16.50;99.90
3202;DHT22;34843;48.744;8.958;2023-07-24T05:11:45;16.60;99.90
3202;DHT22;34843;48.744;8.958;2023-07-24T05:14:11;16.60;99.90
3202;DHT22;34843;48.744;8.958;2023-07-24T05:16:36;16.60;99.90
3202;DHT22;34843;48.744;8.958;2023-07-24T05:19:02;16.70;99.90
3202;DHT22;34843;48.744;8.958;2023-07-24T05:21:27;16.70;99.90
3202;DHT22;34843;48.744;8.958;2023-07-24T05:23:53;16.70;99.90
3202;DHT22;34843;48.744;8.958;2023-07-24T05:26:18;16.70;99.90
3202;DHT22;34843;48.744;8.958;2023-07-24T05:28:44;16.70;99.90
3202;DHT22;34843;48.744;8.958;2023-07-24T05:31:09;16.60;99.90
3202;DHT22;34843;48.744;8.958;2023-07-24T05:33:35;16.60;99.90
3202;DHT22;34843;48.744;8.958;2023-07-24T05:36:02;16.70;99.90
3202;DHT22;34843;48.744;8.958;2023-07-24T05:38:28;16.80;99.90
3202;DHT22;34843;48.744;8.958;2023-07-24T05:41:03;16.80;99.90
3202;DHT22;34843;48.744;8.958;2023-07-24T05:43:30;16.90;99.90
3202;DHT22;34843;48.744;8.958;2023-07-24T05:45:57;17.00;99.90
3202;DHT22;34843;48.744;8.958;2023-07-24T05:48:23;17.00;99.90
3202;DHT22;34843;48.744;8.958;2023-07-24T05:50:49;17.00;99.90
3202;DHT22;34843;48.744;8.958;2023-07-24T05:53:15;17.00;99.90
3202;DHT22;34843;48.744;8.958;2023-07-24T05:55:40;17.10;99.90
3202;DHT22;34843;48.744;8.958;2023-07-24T05:58:06;17.20;99.90
3202;DHT22;34843;48.744;8.958;2023-07-24T06:00:32;17.20;99.90
3202;DHT22;34843;48.744;8.958;2023-07-24T06:02:58;17.20;99.90
3202;DHT22;34843;48.744;8.958;2023-07-24T06:05:23;17.30;99.90
3202;DHT22;34843;48.744;8.958;2023-07-24T06:07:49;17.40;99.90
3202;DHT22;34843;48.744;8.958;2023-07-24T06:10:14;17.40;99.90
3202;DHT22;34843;48.744;8.958;2023-07-24T06:12:40;17.40;99.90
3202;DHT22;34843;48.744;8.958;2023-07-24T06:15:06;17.40;99.90
3202;DHT22;34843;48.744;8.958;2023-07-24T06:17:32;17.50;99.90
3202;DHT22;34843;48.744;8.958;2023-07-24T06:19:57;17.50;99.90
3202;DHT22;34843;48.744;8.958;2023-07-24T06:22:23;17.60;99.90
3202;DHT22;34843;48.744;8.958;2023-07-24T06:24:49;17.80;99.90
3202;DHT22;34843;48.744;8.958;2023-07-24T06:27:15;18.00;99.90
3202;DHT22;34843;48.744;8.958;2023-07-24T06:29:41;18.10;99.90
3202;DHT22;34843;48.744;8.958;2023-07-24T06:32:07;18.10;99.90
3202;DHT22;34843;48.744;8.958;2023-07-24T06:34:33;18.30;99.90
3202;DHT22;34843;48.744;8.958;2023-07-24T06:36:58;18.30;99.90
3202;DHT22;34843;48.744;8.958;2023-07-24T06:39:24;18.50;99.90
3202;DHT22;34843;48.744;8.958;2023-07-24T06:41:52;18.60;99.90
3202;DHT22;34843;48.744;8.958;2023-07-24T06:44:17;18.70;99.90
3202;DHT22;34843;48.744;8.958;2023-07-24T06:46:43;18.80;99.90
3202;DHT22;34843;48.744;8.958;2023-07-24T06:49:08;18.90;99.90
3202;DHT22;34843;48.744;8.958;2023-07-24T06:51:35;18.90;99.90
3202;DHT22;34843;48.744;8.958;2023-07-24T06:54:00;19.00;99.90
3202;DHT22;34843;48.744;8.958;2023-07-24T06:56:26;19.00;99.90
3202;DHT22;34843;48.744;8.958;2023-07-24T06:58:51;19.00;99.90
3202;DHT22;34843;48.744;8.958;2023-07-24T07:01:17;19.20;99.90
3202;DHT22;34843;48.744;8.958;2023-07-24T07:03:43;19.10;99.90
3202;DHT22;34843;48.744;8.958;2023-07-24T07:06:08;19.20;99.90
3202;DHT22;34843;48.744;8.958;2023-07-24T07:08:36;19.40;99.90
3202;DHT22;34843;48.744;8.958;2023-07-24T07:11:01;19.50;99.90
3202;DHT22;34843;48.744;8.958;2023-07-24T07:13:27;19.60;99.90
3202;DHT22;34843;48.744;8.958;2023-07-24T07:15:53;19.90;99.90
3202;DHT22;34843;48.744;8.958;2023-07-24T07:18:18;20.00;99.90
3202;DHT22;34843;48.744;8.958;2023-07-24T07:20:48;19.90;99.90
3202;DHT22;34843;48.744;8.958;2023-07-24T07:23:14;19.90;99.90
3202;DHT22;34843;48.744;8.958;2023-07-24T07:25:40;20.00;99.90
3202;DHT22;34843;48.744;8.958;2023-07-24T07:28:08;19.90;99.90
3202;DHT22;34843;48.744;8.958;2023-07-24T07:30:34;19.90;99.90
3202;DHT22;34843;48.744;8.958;2023-07-24T07:33:00;19.80;99.90
3202;DHT22;34843;48.744;8.958;2023-07-24T07:35:25;19.80;99.90
3202;DHT22;34843;48.744;8.958;2023-07-24T07:37:51;19.90;99.90
3202;DHT22;34843;48.744;8.958;2023-07-24T07:40:16;19.80;99.90
3202;DHT22;34843;48.744;8.958;2023-07-24T07:42:42;19.80;99.90
3202;DHT22;34843;48.744;8.958;2023-07-24T07:45:08;19.90;99.90
3202;DHT22;34843;48.744;8.958;2023-07-24T07:47:33;20.10;99.90
3202;DHT22;34843;48.744;8.958;2023-07-24T07:49:59;20.10;99.90
3202;DHT22;34843;48.744;8.958;2023-07-24T07:52:24;20.10;99.90
3202;DHT22;34843;48.744;8.958;2023-07-24T07:54:50;20.10;99.90
3202;DHT22;34843;48.744;8.958;2023-07-24T07:57:16;20.20;99.90
3202;DHT22;34843;48.744;8.958;2023-07-24T07:59:42;20.10;99.90
3202;DHT22;34843;48.744;8.958;2023-07-24T08:02:07;20.10;99.90
3202;DHT22;34843;48.744;8.958;2023-07-24T08:04:33;20.10;99.90
3202;DHT22;34843;48.744;8.958;2023-07-24T08:06:59;20.00;99.90
3202;DHT22;34843;48.744;8.958;2023-07-24T08:09:24;19.90;99.90
3202;DHT22;34843;48.744;8.958;2023-07-24T08:11:50;19.80;99.90
3202;DHT22;34843;48.744;8.958;2023-07-24T08:14:19;19.60;99.90
3202;DHT22;34843;48.744;8.958;2023-07-24T08:16:44;19.40;99.90
3202;DHT22;34843;48.744;8.958;2023-07-24T08:19:13;19.20;99.90
3202;DHT22;34843;48.744;8.958;2023-07-24T08:21:38;19.10;99.90
3202;DHT22;34843;48.744;8.958;2023-07-24T08:24:04;18.80;99.90
3202;DHT22;34843;48.744;8.958;2023-07-24T08:26:30;18.60;99.90
3202;DHT22;34843;48.744;8.958;2023-07-24T08:28:55;18.50;99.90
3202;DHT22;34843;48.744;8.958;2023-07-24T08:31:21;18.50;99.90
3202;DHT22;34843;48.744;8.958;2023-07-24T08:33:46;18.50;99.90
3202;DHT22;34843;48.744;8.958;2023-07-24T08:36:12;18.60;99.90
3202;DHT22;34843;48.744;8.958;2023-07-24T08:38:38;18.60;99.90
3202;DHT22;34843;48.744;8.958;2023-07-24T08:41:11;18.70;99.90
3202;DHT22;34843;48.744;8.958;2023-07-24T08:43:38;18.70;99.90
3202;DHT22;34843;48.744;8.958;2023-07-24T08:46:05;18.80;99.90
3202;DHT22;34843;48.744;8.958;2023-07-24T08:48:34;19.10;99.90
3202;DHT22;34843;48.744;8.958;2023-07-24T08:51:08;19.30;99.90
3202;DHT22;34843;48.744;8.958;2023-07-24T08:53:36;19.50;99.90
3202;DHT22;34843;48.744;8.958;2023-07-24T08:56:06;19.80;99.90
3202;DHT22;34843;48.744;8.958;2023-07-24T08:58:32;20.20;99.90
3202;DHT22;34843;48.744;8.958;2023-07-24T09:00:59;20.60;99.90
3202;DHT22;34843;48.744;8.958;2023-07-24T09:03:25;21.10;99.90
3202;DHT22;34843;48.744;8.958;2023-07-24T09:05:51;21.50;99.90
3202;DHT22;34843;48.744;8.958;2023-07-24T09:08:16;21.80;99.90
3202;DHT22;34843;48.744;8.958;2023-07-24T09:10:42;22.30;99.90
3202;DHT22;34843;48.744;8.958;2023-07-24T09:13:11;22.60;99.90
3202;DHT22;34843;48.744;8.958;2023-07-24T09:15:43;22.70;99.90
3202;DHT22;34843;48.744;8.958;2023-07-24T09:18:10;22.90;99.90
3202;DHT22;34843;48.744;8.958;2023-07-24T09:20:42;23.20;99.90
3202;DHT22;34843;48.744;8.958;2023-07-24T09:23:09;23.40;99.90
3202;DHT22;34843;48.744;8.958;2023-07-24T09:25:36;23.60;99.90
3202;DHT22;34843;48.744;8.958;2023-07-24T09:28:15;23.60;99.90
3202;DHT22;34843;48.744;8.958;2023-07-24T09:30:42;23.50;99.90
3202;DHT22;34843;48.744;8.958;2023-07-24T09:33:09;23.30;99.90
3202;DHT22;34843;48.744;8.958;2023-07-24T09:35:35;23.10;99.90
3202;DHT22;34843;48.744;8.958;2023-07-24T09:38:05;22.90;99.90
3202;DHT22;34843;48.744;8.958;2023-07-24T09:40:38;22.70;99.90
3202;DHT22;34843;48.744;8.958;2023-07-24T09:45:41;22.20;99.90
3202;DHT22;34843;48.744;8.958;2023-07-24T09:48:07;21.70;99.90
3202;DHT22;34843;48.744;8.958;2023-07-24T09:50:36;21.60;99.90
3202;DHT22;34843;48.744;8.958;2023-07-24T09:53:03;21.60;99.90
3202;DHT22;34843;48.744;8.958;2023-07-24T09:55:36;21.50;99.90
3202;DHT22;34843;48.744;8.958;2023-07-24T09:58:04;21.40;99.90
3202;DHT22;34843;48.744;8.958;2023-07-24T10:00:31;21.40;99.90
3202;DHT22;34843;48.744;8.958;2023-07-24T10:02:57;21.30;99.90
3202;DHT22;34843;48.744;8.958;2023-07-24T10:05:23;21.20;99.90
3202;DHT22;34843;48.744;8.958;2023-07-24T10:07:50;21.10;99.90
3202;DHT22;34843;48.744;8.958;2023-07-24T10:10:17;21.10;99.90
3202;DHT22;34843;48.744;8.958;2023-07-24T10:12:43;21.00;99.90
3202;DHT22;34843;48.744;8.958;2023-07-24T10:15:09;20.90;99.90
3202;DHT22;34843;48.744;8.958;2023-07-24T10:17:39;20.90;99.90
3202;DHT22;34843;48.744;8.958;2023-07-24T10:20:07;20.80;99.90
3202;DHT22;34843;48.744;8.958;2023-07-24T10:22:33;20.70;99.90
3202;DHT22;34843;48.744;8.958;2023-07-24T10:24:59;20.70;99.90
3202;DHT22;34843;48.744;8.958;2023-07-24T10:27:25;20.60;99.90
3202;DHT22;34843;48.744;8.958;2023-07-24T10:30:00;20.50;99.90
3202;DHT22;34843;48.744;8.958;2023-07-24T10:32:26;20.50;99.90
3202;DHT22;34843;48.744;8.958;2023-07-24T10:35:06;20.50;99.90
3202;DHT22;34843;48.744;8.958;2023-07-24T10:37:36;20.40;99.90
3202;DHT22;34843;48.744;8.958;2023-07-24T10:40:03;20.30;99.90
3202;DHT22;34843;48.744;8.958;2023-07-24T10:42:30;20.10;99.90
3202;DHT22;34843;48.744;8.958;2023-07-24T10:45:06;19.70;99.90
3202;DHT22;34843;48.744;8.958;2023-07-24T10:47:32;19.40;99.90
3202;DHT22;34843;48.744;8.958;2023-07-24T10:49:58;19.40;99.90
3202;DHT22;34843;48.744;8.958;2023-07-24T10:52:33;19.30;99.90
3202;DHT22;34843;48.744;8.958;2023-07-24T10:55:03;19.20;99.90
3202;DHT22;34843;48.744;8.958;2023-07-24T10:57:29;19.10;99.90
3202;DHT22;34843;48.744;8.958;2023-07-24T10:59:55;19.00;99.90
3202;DHT22;34843;48.744;8.958;2023-07-24T11:02:21;18.90;99.90
3202;DHT22;34843;48.744;8.958;2023-07-24T11:04:47;18.80;99.90
3202;DHT22;34843;48.744;8.958;2023-07-24T11:07:13;18.70;99.90
3202;DHT22;34843;48.744;8.958;2023-07-24T11:09:39;18.50;99.90
3202;DHT22;34843;48.744;8.958;2023-07-24T11:12:16;18.50;99.90
3202;DHT22;34843;48.744;8.958;2023-07-24T11:14:52;18.40;99.90
3202;DHT22;34843;48.744;8.958;2023-07-24T11:17:21;18.40;99.90
3202;DHT22;34843;48.744;8.958;2023-07-24T11:19:46;18.40;99.90
3202;DHT22;34843;48.744;8.958;2023-07-24T11:22:12;18.40;99.90
3202;DHT22;34843;48.744;8.958;2023-07-24T11:24:42;18.50;99.90
3202;DHT22;34843;48.744;8.958;2023-07-24T11:27:12;18.40;99.90
3202;DHT22;34843;48.744;8.958;2023-07-24T11:29:39;18.30;99.90
3202;DHT22;34843;48.744;8.958;2023-07-24T11:32:04;18.50;99.90
3202;DHT22;34843;48.744;8.958;2023-07-24T11:34:30;18.80;99.90
3202;DHT22;34843;48.744;8.958;2023-07-24T11:36:56;19.40;99.90
3202;DHT22;34843;48.744;8.958;2023-07-24T11:39:25;20.00;99.90
3202;DHT22;34843;48.744;8.958;2023-07-24T11:41:50;20.60;99.90
3202;DHT22;34843;48.744;8.958;2023-07-24T11:46:44;21.20;99.90
3202;DHT22;34843;48.744;8.958;2023-07-24T11:49:14;21.50;99.90
3202;DHT22;34843;48.744;8.958;2023-07-24T11:51:40;21.60;99.90
3202;DHT22;34843;48.744;8.958;2023-07-24T11:54:07;21.70;99.90
3202;DHT22;34843;48.744;8.958;2023-07-24T11:56:33;21.60;99.90
3202;DHT22;34843;48.744;8.958;2023-07-24T11:59:12;21.40;99.90
3202;DHT22;34843;48.744;8.958;2023-07-24T12:01:37;21.30;99.90
3202;DHT22;34843;48.744;8.958;2023-07-24T12:04:03;21.20;99.90
3202;DHT22;34843;48.744;8.958;2023-07-24T12:06:31;21.20;99.90
3202;DHT22;34843;48.744;8.958;2023-07-24T12:09:06;21.10;99.90
3202;DHT22;34843;48.744;8.958;2023-07-24T12:11:32;21.20;99.90
3202;DHT22;34843;48.744;8.958;2023-07-24T12:13:58;21.20;99.90
3202;DHT22;34843;48.744;8.958;2023-07-24T12:16:24;21.40;99.90
3202;DHT22;34843;48.744;8.958;2023-07-24T12:18:49;21.50;99.90
3202;DHT22;34843;48.744;8.958;2023-07-24T12:21:15;21.60;99.90
3202;DHT22;34843;48.744;8.958;2023-07-24T12:23:40;21.70;99.90
3202;DHT22;34843;48.744;8.958;2023-07-24T12:26:06;21.70;99.90
3202;DHT22;34843;48.744;8.958;2023-07-24T12:28:32;21.80;99.90
3202;DHT22;34843;48.744;8.958;2023-07-24T12:30:58;21.90;99.90
3202;DHT22;34843;48.744;8.958;2023-07-24T12:33:23;22.00;99.90
3202;DHT22;34843;48.744;8.958;2023-07-24T12:35:50;22.00;99.90
3202;DHT22;34843;48.744;8.958;2023-07-24T12:38:15;22.00;99.90
3202;DHT22;34843;48.744;8.958;2023-07-24T12:40:41;22.00;99.90
3202;DHT22;34843;48.744;8.958;2023-07-24T12:43:06;22.20;99.90
3202;DHT22;34843;48.744;8.958;2023-07-24T12:45:32;22.40;99.90
3202;DHT22;34843;48.744;8.958;2023-07-24T12:47:57;22.60;99.90
3202;DHT22;34843;48.744;8.958;2023-07-24T12:50:23;22.80;99.90
3202;DHT22;34843;48.744;8.958;2023-07-24T12:52:49;23.00;99.90
3202;DHT22;34843;48.744;8.958;2023-07-24T12:55:15;23.40;99.90
3202;DHT22;34843;48.744;8.958;2023-07-24T12:57:40;23.80;99.90
3202;DHT22;34843;48.744;8.958;2023-07-24T13:00:06;24.10;99.90
3202;DHT22;34843;48.744;8.958;2023-07-24T13:02:32;24.40;99.90
3202;DHT22;34843;48.744;8.958;2023-07-24T13:04:58;24.50;99.90
3202;DHT22;34843;48.744;8.958;2023-07-24T13:07:24;24.50;99.90
3202;DHT22;34843;48.744;8.958;2023-07-24T13:09:49;24.50;99.90
3202;DHT22;34843;48.744;8.958;2023-07-24T13:12:15;24.80;99.90
3202;DHT22;34843;48.744;8.958;2023-07-24T13:14:40;25.10;99.90
3202;DHT22;34843;48.744;8.958;2023-07-24T13:17:06;25.40;99.90
3202;DHT22;34843;48.744;8.958;2023-07-24T13:19:32;25.50;99.90
3202;DHT22;34843;48.744;8.958;2023-07-24T13:21:58;25.70;99.90
3202;DHT22;34843;48.744;8.958;2023-07-24T13:24:23;25.70;99.90
3202;DHT22;34843;48.744;8.958;2023-07-24T13:26:49;25.70;99.90
3202;DHT22;34843;48.744;8.958;2023-07-24T13:29:15;25.90;99.90
3202;DHT22;34843;48.744;8.958;2023-07-24T13:31:40;25.90;99.90
3202;DHT22;34843;48.744;8.958;2023-07-24T13:34:06;26.00;99.90
3202;DHT22;34843;48.744;8.958;2023-07-24T13:36:33;25.80;99.90
3202;DHT22;34843;48.744;8.958;2023-07-24T13:38:59;25.60;99.90
3202;DHT22;34843;48.744;8.958;2023-07-24T13:41:24;25.70;99.90
3202;DHT22;34843;48.744;8.958;2023-07-24T13:43:50;25.90;99.90
3202;DHT22;34843;48.744;8.958;2023-07-24T13:46:15;26.00;99.90
3202;DHT22;34843;48.744;8.958;2023-07-24T13:48:41;26.00;99.90
3202;DHT22;34843;48.744;8.958;2023-07-24T13:51:06;26.10;99.90
3202;DHT22;34843;48.744;8.958;2023-07-24T13:53:32;26.20;99.90
3202;DHT22;34843;48.744;8.958;2023-07-24T13:55:57;26.20;99.90
3202;DHT22;34843;48.744;8.958;2023-07-24T13:58:23;26.20;99.90
3202;DHT22;34843;48.744;8.958;2023-07-24T14:00:48;26.20;99.90
3202;DHT22;34843;48.744;8.958;2023-07-24T14:03:14;26.40;99.90
3202;DHT22;34843;48.744;8.958;2023-07-24T14:05:39;26.50;99.90
3202;DHT22;34843;48.744;8.958;2023-07-24T14:08:06;26.40;99.90
3202;DHT22;34843;48.744;8.958;2023-07-24T14:10:32;26.40;99.90
3202;DHT22;34843;48.744;8.958;2023-07-24T14:12:58;26.20;99.90
3202;DHT22;34843;48.744;8.958;2023-07-24T14:15:23;26.20;99.90
3202;DHT22;34843;48.744;8.958;2023-07-24T14:17:49;26.30;99.90
3202;DHT22;34843;48.744;8.958;2023-07-24T14:20:14;26.30;99.90
3202;DHT22;34843;48.744;8.958;2023-07-24T14:22:40;26.40;99.90
3202;DHT22;34843;48.744;8.958;2023-07-24T14:25:06;26.80;99.90
3202;DHT22;34843;48.744;8.958;2023-07-24T14:27:32;26.90;99.90
3202;DHT22;34843;48.744;8.958;2023-07-24T14:29:57;26.80;99.90
3202;DHT22;34843;48.744;8.958;2023-07-24T14:32:23;26.90;99.90
3202;DHT22;34843;48.744;8.958;2023-07-24T14:34:51;27.10;99.90
3202;DHT22;34843;48.744;8.958;2023-07-24T14:37:17;27.30;99.90
3202;DHT22;34843;48.744;8.958;2023-07-24T14:39:42;27.10;99.90
3202;DHT22;34843;48.744;8.958;2023-07-24T14:42:10;26.80;99.90
3202;DHT22;34843;48.744;8.958;2023-07-24T14:44:35;26.30;99.90
3202;DHT22;34843;48.744;8.958;2023-07-24T14:47:01;25.90;99.90
3202;DHT22;34843;48.744;8.958;2023-07-24T14:49:26;25.60;99.90
3202;DHT22;34843;48.744;8.958;2023-07-24T14:51:52;25.20;99.90
3202;DHT22;34843;48.744;8.958;2023-07-24T14:54:17;25.10;99.90
3202;DHT22;34843;48.744;8.958;2023-07-24T14:56:43;25.10;99.90
3202;DHT22;34843;48.744;8.958;2023-07-24T14:59:08;25.20;99.90
3202;DHT22;34843;48.744;8.958;2023-07-24T15:01:34;25.40;99.90
3202;DHT22;34843;48.744;8.958;2023-07-24T15:03:59;25.60;99.90
3202;DHT22;34843;48.744;8.958;2023-07-24T15:06:25;25.90;99.90
3202;DHT22;34843;48.744;8.958;2023-07-24T15:08:50;25.90;99.90
3202;DHT22;34843;48.744;8.958;2023-07-24T15:11:22;26.00;99.90
3202;DHT22;34843;48.744;8.958;2023-07-24T15:13:48;26.00;99.90
3202;DHT22;34843;48.744;8.958;2023-07-24T15:16:14;25.70;99.90
3202;DHT22;34843;48.744;8.958;2023-07-24T15:18:39;25.50;99.90
3202;DHT22;34843;48.744;8.958;2023-07-24T15:21:05;25.30;99.90
3202;DHT22;34843;48.744;8.958;2023-07-24T15:23:30;25.10;99.90
3202;DHT22;34843;48.744;8.958;2023-07-24T15:25:56;24.90;99.90
3202;DHT22;34843;48.744;8.958;2023-07-24T15:28:22;24.60;99.90
3202;DHT22;34843;48.744;8.958;2023-07-24T15:30:48;24.30;99.90
3202;DHT22;34843;48.744;8.958;2023-07-24T15:33:14;24.10;99.90
3202;DHT22;34843;48.744;8.958;2023-07-24T15:35:39;23.90;99.90
3202;DHT22;34843;48.744;8.958;2023-07-24T15:38:05;23.80;99.90
3202;DHT22;34843;48.744;8.958;2023-07-24T15:40:31;23.60;99.90
3202;DHT22;34843;48.744;8.958;2023-07-24T15:42:58;23.50;99.90
3202;DHT22;34843;48.744;8.958;2023-07-24T15:45:23;23.50;99.90
3202;DHT22;34843;48.744;8.958;2023-07-24T15:47:49;23.40;99.90